createdAt,value
2023-02-25T00:00:19.526Z,95.24
2023-02-25T00:05:24.145Z,95.47
2023-02-25T00:10:27.056Z,95.48
2023-02-25T00:15:29.966Z,96.42
2023-02-25T00:20:34.259Z,96.28
2023-02-25T00:25:37.547Z,95.21
2023-02-25T00:30:42.488Z,96.08
2023-02-25T00:35:50.002Z,95.48
2023-02-25T00:40:52.956Z,96.35
2023-02-25T00:45:55.857Z,95.31
2023-02-25T00:51:06.188Z,95.39
2023-02-25T00:56:11.397Z,95.14
2023-02-25T01:01:19.983Z,94.21
2023-02-25T01:06:25.217Z,94.43
2023-02-25T01:11:30.650Z,94.22
2023-02-25T01:16:35.086Z,94.49
2023-02-25T01:21:43.820Z,94.81
2023-02-25T01:26:48.092Z,93.81
2023-02-25T01:31:53.662Z,93.77
2023-02-25T01:36:58.461Z,93.62
2023-02-25T01:42:05.475Z,93.02
2023-02-25T01:47:10.157Z,93.04
2023-02-25T01:52:19.770Z,93.97
2023-02-25T01:57:23.742Z,95.00
2023-02-25T02:02:29.780Z,94.06
2023-02-25T02:07:34.215Z,93.30
2023-02-25T02:12:40.031Z,92.87
2023-02-25T02:17:47.548Z,93.59
2023-02-25T02:23:00.847Z,92.58
2023-02-25T02:28:37.271Z,92.72
2023-02-25T02:33:49.532Z,93.47
2023-02-25T02:38:59.347Z,93.19
2023-02-25T02:44:10.092Z,93.05
2023-02-25T02:49:22.002Z,93.10
2023-02-25T02:54:28.293Z,93.91
2023-02-25T02:59:34.579Z,94.16
2023-02-25T03:04:42.959Z,95.04
2023-02-25T03:09:50.238Z,95.58
2023-02-25T03:14:53.645Z,94.42
2023-02-25T03:20:04.225Z,94.73
2023-02-25T03:25:14.048Z,94.94
2023-02-25T03:30:25.524Z,94.36
2023-02-25T03:35:31.769Z,95.33
2023-02-25T03:40:35.849Z,94.56
2023-02-25T03:45:40.863Z,95.20
2023-02-25T03:50:49.656Z,95.32
2023-02-25T03:55:53.842Z,94.59
2023-02-25T04:01:02.528Z,96.01
2023-02-25T04:06:10.379Z,95.76
2023-02-25T04:11:13.774Z,95.65
2023-02-25T04:16:19.182Z,95.64
2023-02-25T04:21:30.388Z,95.08
2023-02-25T04:26:33.701Z,95.22
2023-02-25T04:31:36.730Z,95.93
2023-02-25T04:36:41.568Z,96.50
2023-02-25T04:41:45.135Z,98.42
2023-02-25T04:46:51.832Z,97.78
2023-02-25T04:51:56.251Z,97.89
2023-02-25T04:56:59.184Z,98.65
2023-02-25T05:02:02.165Z,99.07
2023-02-25T05:07:07.850Z,99.20
2023-02-25T05:12:10.792Z,98.30
2023-02-25T05:17:15.726Z,99.36
2023-02-25T05:22:20.862Z,98.94
2023-02-25T05:27:23.741Z,99.12
2023-02-25T05:32:26.759Z,99.27
2023-02-25T05:37:32.814Z,99.14
2023-02-25T05:42:35.757Z,100.00
2023-02-25T05:47:38.859Z,99.19
2023-02-25T05:52:43.215Z,99.45
2023-02-25T05:57:46.125Z,98.58
2023-02-25T06:02:49.214Z,98.65
2023-02-25T06:07:53.481Z,98.80
2023-02-25T06:12:56.454Z,98.54
2023-02-25T06:17:59.398Z,98.26
2023-02-25T06:23:03.956Z,97.84
2023-02-25T06:28:06.969Z,98.90
2023-02-25T06:33:09.982Z,98.11
2023-02-25T06:38:14.379Z,97.75
2023-02-25T06:43:17.553Z,98.02
2023-02-25T06:48:20.474Z,97.95
2023-02-25T06:53:24.712Z,97.81
2023-02-25T06:58:27.623Z,98.00
2023-02-25T07:03:30.493Z,97.84
2023-02-25T07:08:34.784Z,98.71
2023-02-25T07:13:37.875Z,97.86
2023-02-25T07:18:40.880Z,98.24
2023-02-25T07:23:46.540Z,98.52
2023-02-25T07:28:49.497Z,97.88
2023-02-25T07:33:53.108Z,97.81
2023-02-25T07:38:57.651Z,98.08
2023-02-25T07:44:00.510Z,98.38
2023-02-25T07:49:03.886Z,98.02
2023-02-25T07:54:08.252Z,98.54
2023-02-25T07:59:11.408Z,97.57
2023-02-25T08:04:14.375Z,98.36
2023-02-25T08:09:18.830Z,98.61
2023-02-25T08:14:22.704Z,97.94
2023-02-25T08:19:25.748Z,98.12
2023-02-25T08:24:30.026Z,96.82
2023-02-25T08:29:32.947Z,97.27
2023-02-25T08:34:36.155Z,98.43
2023-02-25T08:39:40.583Z,97.58
2023-02-25T08:44:43.763Z,98.50
2023-02-25T08:49:47.549Z,98.30
2023-02-25T08:54:51.989Z,98.37
2023-02-25T08:59:55.246Z,98.70
2023-02-25T09:04:58.188Z,100.00
2023-02-25T09:10:04.110Z,100.00
2023-02-25T09:15:08.686Z,100.00
2023-02-25T09:20:12.434Z,100.00
2023-02-25T09:25:16.795Z,98.62
2023-02-25T09:30:19.782Z,98.07
2023-02-25T09:35:22.916Z,96.29
2023-02-25T09:40:27.834Z,95.39
2023-02-25T09:45:34.224Z,95.92
2023-02-25T09:50:42.998Z,97.46
2023-02-25T09:55:50.089Z,94.53
2023-02-25T10:01:02.840Z,94.28
2023-02-25T10:06:14.276Z,96.20
2023-02-25T10:11:27.551Z,95.62
2023-02-25T10:16:42.294Z,95.23
2023-02-25T10:22:09.949Z,96.78
2023-02-25T10:27:21.913Z,94.83
2023-02-25T10:32:27.386Z,95.00
2023-02-25T10:37:35.824Z,95.21
2023-02-25T10:42:40.134Z,95.75
2023-02-25T10:47:46.340Z,95.37
2023-02-25T10:52:54.970Z,95.83
2023-02-25T10:58:00.797Z,97.05
2023-02-25T11:03:05.804Z,96.70
2023-02-25T11:08:27.663Z,96.16
2023-02-25T11:13:36.331Z,95.48
2023-02-25T11:18:40.663Z,95.47
2023-02-25T11:23:48.025Z,93.68
2023-02-25T11:28:52.564Z,94.25
2023-02-25T11:33:59.602Z,96.46
2023-02-25T11:39:18.077Z,95.29
2023-02-25T11:44:27.969Z,94.27
2023-02-25T11:50:05.024Z,95.65
2023-02-25T11:55:19.042Z,95.58
2023-02-25T12:00:30.605Z,94.98
2023-02-25T12:05:48.570Z,95.16
2023-02-25T12:11:24.660Z,94.57
2023-02-25T12:17:03.034Z,95.20
2023-02-25T12:22:37.672Z,97.00
2023-02-25T12:27:58.929Z,95.87
2023-02-25T12:33:15.960Z,95.80
2023-02-25T12:39:01.364Z,94.31
2023-02-25T12:44:25.058Z,96.07
2023-02-25T12:49:55.887Z,93.78
2023-02-25T12:55:21.143Z,94.54
2023-02-25T13:00:44.929Z,93.34
2023-02-25T13:06:32.999Z,95.89
2023-02-25T13:12:10.132Z,93.73
2023-02-25T13:17:26.866Z,93.27
2023-02-25T13:22:44.786Z,92.74
2023-02-25T13:28:13.177Z,93.61
2023-02-25T13:33:29.641Z,92.65
2023-02-25T13:38:57.973Z,94.75
2023-02-25T13:44:20.360Z,93.95
2023-02-25T13:49:42.058Z,95.60
2023-02-25T13:55:09.990Z,94.85
2023-02-25T14:00:40.382Z,95.36
2023-02-25T14:06:00.478Z,96.22
2023-02-25T14:11:29.795Z,96.07
2023-02-25T14:16:41.438Z,95.00
2023-02-25T14:22:21.244Z,96.24
2023-02-25T14:27:37.053Z,97.12
2023-02-25T14:32:55.380Z,97.54
2023-02-25T14:38:09.101Z,97.95
2023-02-25T14:43:32.312Z,97.45
2023-02-25T14:48:42.580Z,100.00
2023-02-25T14:54:03.363Z,100.00
2023-02-25T14:59:36.885Z,99.82
2023-02-25T15:05:15.460Z,99.15
2023-02-25T15:10:34.565Z,98.65
2023-02-25T15:15:58.472Z,100.00
2023-02-25T15:21:35.888Z,98.09
2023-02-25T15:26:45.438Z,98.62
2023-02-25T15:32:16.686Z,99.27
2023-02-25T15:38:01.091Z,97.88
2023-02-25T15:43:42.437Z,97.10
2023-02-25T15:49:02.807Z,97.90
2023-02-25T15:54:06.409Z,98.05
2023-02-25T15:59:09.404Z,99.48
2023-02-25T16:04:46.084Z,99.51
2023-02-25T16:09:56.285Z,99.82
2023-02-25T16:15:00.676Z,99.42
2023-02-25T16:20:14.566Z,99.24
2023-02-25T16:25:23.497Z,99.69
2023-02-25T16:30:34.510Z,100.00
2023-02-25T16:35:48.380Z,99.64
2023-02-25T16:40:52.232Z,98.59
2023-02-25T16:45:58.510Z,99.04
2023-02-25T16:51:10.395Z,97.29
2023-02-25T16:56:19.926Z,96.64
2023-02-25T17:01:23.942Z,97.23
2023-02-25T17:06:28.353Z,98.43
2023-02-25T17:11:31.758Z,98.98
2023-02-25T17:16:41.786Z,98.61
2023-02-25T17:21:51.912Z,99.91
2023-02-25T17:26:55.423Z,97.57
2023-02-25T17:31:58.441Z,96.27
2023-02-25T17:37:08.386Z,96.05
2023-02-25T17:42:32.174Z,97.42
2023-02-25T17:47:38.060Z,97.83
2023-02-25T17:52:49.164Z,98.27
2023-02-25T17:57:54.847Z,98.88
2023-02-25T18:03:17.471Z,99.74
2023-02-25T18:08:23.945Z,100.00
2023-02-25T18:13:35.323Z,100.00
2023-02-25T18:18:38.321Z,100.00
2023-02-25T18:23:42.747Z,100.00
2023-02-25T18:28:47.425Z,99.76
2023-02-25T18:33:50.657Z,100.00
2023-02-25T18:38:58.298Z,100.00
2023-02-25T18:44:02.417Z,100.00
2023-02-25T18:49:05.544Z,100.00
2023-02-25T18:54:16.144Z,100.00
2023-02-25T18:59:19.707Z,100.00
2023-02-25T19:04:22.708Z,100.00
2023-02-25T19:09:28.481Z,100.00
2023-02-25T19:14:32.689Z,100.00
2023-02-25T19:19:36.177Z,100.00
2023-02-25T19:24:40.507Z,100.00
2023-02-25T19:29:43.462Z,100.00
2023-02-25T19:34:46.454Z,100.00
2023-02-25T19:39:51.104Z,100.00
2023-02-25T19:44:54.462Z,100.00
2023-02-25T19:49:57.494Z,100.00
2023-02-25T19:55:02.343Z,100.00
2023-02-25T20:00:08.706Z,100.00
2023-02-25T20:05:32.450Z,100.00
2023-02-25T20:10:37.525Z,100.00
2023-02-25T20:15:41.068Z,100.00
2023-02-25T20:20:44.055Z,100.00
2023-02-25T20:25:48.568Z,100.00
2023-02-25T20:30:51.481Z,100.00
2023-02-25T20:35:54.640Z,100.00
2023-02-25T20:40:59.168Z,100.00
2023-02-25T20:46:02.344Z,100.00
2023-02-25T20:51:05.824Z,100.00
2023-02-25T20:56:12.980Z,100.00
2023-02-25T21:01:15.963Z,100.00
2023-02-25T21:06:19.728Z,100.00
2023-02-25T21:11:25.618Z,100.00
2023-02-25T21:16:28.775Z,100.00
2023-02-25T21:21:36.948Z,100.00
2023-02-25T21:26:41.244Z,100.00
2023-02-25T21:31:45.616Z,100.00
2023-02-25T21:36:48.666Z,100.00
2023-02-25T21:41:53.001Z,100.00
2023-02-25T21:46:58.059Z,100.00
2023-02-25T21:52:01.511Z,100.00
2023-02-25T21:57:06.546Z,100.00
2023-02-25T22:02:11.309Z,100.00
2023-02-25T22:07:14.442Z,100.00
2023-02-25T22:12:18.688Z,100.00
2023-02-25T22:17:21.540Z,100.00
2023-02-25T22:22:24.443Z,100.00
2023-02-25T22:27:28.734Z,100.00
2023-02-25T22:32:31.726Z,100.00
2023-02-25T22:37:35.254Z,100.00
2023-02-25T22:42:39.579Z,100.00
2023-02-25T22:47:43.166Z,100.00
2023-02-25T22:52:46.092Z,99.72
2023-02-25T22:57:50.328Z,99.08
2023-02-25T23:02:53.287Z,97.78
2023-02-25T23:07:56.251Z,99.84
2023-02-25T23:13:02.311Z,100.00
2023-02-25T23:18:08.598Z,100.00
2023-02-25T23:23:17.383Z,99.74
2023-02-25T23:28:21.695Z,99.34
2023-02-25T23:33:24.624Z,100.00
2023-02-25T23:38:28.409Z,99.26
2023-02-25T23:43:32.912Z,99.99
2023-02-25T23:48:35.767Z,100.00
2023-02-25T23:53:38.667Z,100.00
2023-02-25T23:58:42.946Z,100.00
